KAKQ

Wakefield Municipal Airport

Wakefield, Virginia, USA
METAR KAKQ 190454Z AUTO 00000KT 10SM CLR 22/21 A2984 RMK AO2 SLP104 T02170206 403000217
Observed Flight Rules
Sep-19 @ 04:54 UTC (25 minutes ago) Visual Flight Rules
Visibility Clouds
10 miles
  • Clear skies
Temperatures Readings
Current 22°C / 72°F
Dewpoint 21°C / 70°F
Humidity 94%
Altimeter 29.84" Hg
Pressure 1010.4 hPa
Elevation 34
METAR KAKQ 190454Z AUTO 00000KT 10SM CLR 22/21 A2984 RMK AO2 SLP104 T02170206 403000217
Observed Flight Rules
Sep-19 @ 04:54 UTC
(25 minutes ago)
VFR
Clouds
  • Clear skies
Temperature Dewpoint
22°C / 72°F 21°C / 70°F
Humidity Altimeter Pressure
94% 29.84" Hg 1010.4 hPa